createdAt,value
2022-10-31T00:01:26.836Z,32.57
2022-10-31T00:04:31.213Z,35.23
2022-10-31T00:07:34.327Z,34.50
2022-10-31T00:10:40.511Z,33.77
2022-10-31T00:13:43.565Z,33.97
2022-10-31T00:16:46.625Z,32.30
2022-10-31T00:19:51.084Z,32.97
2022-10-31T00:22:54.044Z,31.30
2022-10-31T00:26:02.467Z,33.60
2022-10-31T00:29:05.829Z,36.13
2022-10-31T00:32:08.871Z,34.17
2022-10-31T00:35:13.288Z,35.87
2022-10-31T00:38:16.261Z,40.17
2022-10-31T00:41:20.179Z,35.37
2022-10-31T00:44:25.484Z,35.07
2022-10-31T00:47:29.646Z,36.10
2022-10-31T00:50:35.033Z,37.07
2022-10-31T00:53:38.159Z,36.43
2022-10-31T00:56:42.885Z,34.97
2022-10-31T00:59:46.014Z,34.87
2022-10-31T01:02:49.040Z,32.33
2022-10-31T01:06:03.993Z,32.73
2022-10-31T01:09:09.674Z,34.30
2022-10-31T01:12:12.687Z,35.10
2022-10-31T01:15:21.522Z,34.30
2022-10-31T01:18:24.982Z,37.03
2022-10-31T01:21:31.204Z,35.90
2022-10-31T01:24:35.753Z,36.40
2022-10-31T01:27:39.375Z,34.10
2022-10-31T01:30:44.013Z,33.10
2022-10-31T01:33:47.207Z,35.37
2022-10-31T01:36:52.310Z,36.73
2022-10-31T01:39:55.591Z,33.07
2022-10-31T01:42:58.944Z,33.20
2022-10-31T01:46:02.229Z,34.30
2022-10-31T01:49:10.467Z,33.67
2022-10-31T01:52:23.119Z,31.20
2022-10-31T01:55:31.060Z,31.87
2022-10-31T01:58:34.429Z,31.83
2022-10-31T02:01:40.711Z,33.37
2022-10-31T02:04:44.913Z,34.20
2022-10-31T02:07:57.182Z,34.30
2022-10-31T02:11:05.600Z,30.43
2022-10-31T02:14:08.660Z,30.87
2022-10-31T02:17:11.833Z,31.77
2022-10-31T02:20:19.849Z,30.50
2022-10-31T02:24:23.887Z,30.23
2022-10-31T02:27:54.398Z,30.00
2022-10-31T02:31:14.602Z,28.93
2022-10-31T02:34:22.530Z,27.43
2022-10-31T02:37:34.025Z,29.63
2022-10-31T02:40:56.144Z,31.30
2022-10-31T02:44:18.428Z,30.63
2022-10-31T02:47:28.697Z,28.10
2022-10-31T02:50:35.363Z,28.67
2022-10-31T02:53:40.669Z,28.53
2022-10-31T02:56:47.439Z,29.57
2022-10-31T02:59:55.753Z,25.43
2022-10-31T03:03:11.311Z,27.30
2022-10-31T03:06:21.265Z,25.40
2022-10-31T03:09:30.382Z,24.90
2022-10-31T03:12:44.530Z,26.60
2022-10-31T03:15:53.850Z,28.97
2022-10-31T03:19:03.516Z,28.07
2022-10-31T03:22:14.295Z,27.40
2022-10-31T03:25:18.879Z,25.57
2022-10-31T03:28:29.044Z,25.03
2022-10-31T03:31:38.618Z,26.43
2022-10-31T03:34:46.341Z,25.17
2022-10-31T03:37:51.825Z,25.17
2022-10-31T03:40:58.053Z,21.93
2022-10-31T03:44:07.079Z,24.17
2022-10-31T03:47:10.895Z,25.47
2022-10-31T03:50:17.403Z,23.57
2022-10-31T03:53:28.329Z,27.77
2022-10-31T03:56:37.395Z,25.67
2022-10-31T03:59:45.904Z,24.60
2022-10-31T04:03:00.108Z,24.43
2022-10-31T04:06:11.204Z,27.03
2022-10-31T04:09:17.870Z,26.40
2022-10-31T04:12:22.654Z,23.53
2022-10-31T04:15:38.433Z,22.33
2022-10-31T04:18:41.397Z,23.47
2022-10-31T04:21:45.694Z,23.50
2022-10-31T04:24:48.670Z,24.47
2022-10-31T04:27:54.069Z,22.27
2022-10-31T04:30:57.195Z,21.17
2022-10-31T04:34:00.288Z,19.93
2022-10-31T04:37:04.668Z,21.60
2022-10-31T04:40:11.249Z,22.27
2022-10-31T04:43:32.718Z,20.57
2022-10-31T04:46:37.299Z,22.17
2022-10-31T04:49:40.361Z,22.13
2022-10-31T04:52:47.837Z,20.93
2022-10-31T04:55:54.137Z,21.73
2022-10-31T04:58:59.529Z,20.87
2022-10-31T05:02:05.376Z,21.80
2022-10-31T05:05:25.417Z,22.03
2022-10-31T05:08:29.774Z,22.90
2022-10-31T05:11:33.366Z,22.00
2022-10-31T05:14:48.582Z,22.43
2022-10-31T05:18:10.618Z,21.03
2022-10-31T05:21:36.292Z,19.30
2022-10-31T05:24:41.450Z,20.30
2022-10-31T05:27:48.728Z,19.43
2022-10-31T05:30:52.082Z,19.37
2022-10-31T05:33:55.265Z,22.20
2022-10-31T05:37:27.177Z,19.77
2022-10-31T05:40:31.561Z,22.17
2022-10-31T05:43:34.514Z,22.00
2022-10-31T05:46:41.624Z,23.13
2022-10-31T05:50:04.473Z,20.53
2022-10-31T05:53:22.266Z,20.87
2022-10-31T05:56:26.779Z,21.63
2022-10-31T05:59:30.104Z,20.90
2022-10-31T06:02:35.406Z,20.30
2022-10-31T06:06:16.953Z,20.93
2022-10-31T06:09:20.100Z,18.73
2022-10-31T06:12:24.916Z,20.80
2022-10-31T06:15:51.901Z,18.67
2022-10-31T06:18:58.781Z,21.43
2022-10-31T06:22:01.726Z,20.63
2022-10-31T06:25:06.303Z,20.80
2022-10-31T06:28:14.736Z,20.77
2022-10-31T06:31:28.974Z,21.10
2022-10-31T06:34:32.466Z,19.13
2022-10-31T06:37:35.456Z,20.87
2022-10-31T06:41:05.377Z,19.77
2022-10-31T06:44:26.144Z,19.10
2022-10-31T06:47:31.996Z,22.00
2022-10-31T06:50:43.748Z,25.83
2022-10-31T06:53:47.087Z,24.63
2022-10-31T06:56:52.832Z,24.83
2022-10-31T06:59:57.174Z,26.10
2022-10-31T07:03:21.147Z,25.90
2022-10-31T07:06:24.646Z,26.57
2022-10-31T07:09:30.690Z,27.87
2022-10-31T07:12:37.751Z,22.43
2022-10-31T07:15:44.044Z,23.47
2022-10-31T07:18:47.014Z,25.63
2022-10-31T07:21:50.062Z,25.13
2022-10-31T07:24:53.256Z,28.60
2022-10-31T07:28:19.195Z,26.77
2022-10-31T07:31:27.853Z,26.57
2022-10-31T07:34:35.074Z,41.13
2022-10-31T07:37:55.606Z,44.43
2022-10-31T07:40:59.098Z,46.57
2022-10-31T07:44:05.507Z,47.97
2022-10-31T07:47:42.911Z,47.77
2022-10-31T07:51:04.564Z,48.37
2022-10-31T07:54:33.106Z,41.07
2022-10-31T07:57:37.545Z,47.80
2022-10-31T08:00:42.653Z,47.00
2022-10-31T08:03:47.844Z,44.93
2022-10-31T08:07:09.538Z,45.97
2022-10-31T08:10:14.985Z,40.10
2022-10-31T08:13:17.929Z,41.33
2022-10-31T08:16:24.065Z,36.17
2022-10-31T08:19:35.143Z,34.43
2022-10-31T08:22:42.812Z,36.70
2022-10-31T08:25:47.928Z,35.80
2022-10-31T08:28:51.492Z,36.83
2022-10-31T08:31:56.880Z,36.10
2022-10-31T08:35:19.739Z,38.33
2022-10-31T08:38:41.127Z,33.53
2022-10-31T08:41:46.293Z,34.57
2022-10-31T08:44:49.845Z,32.50
2022-10-31T08:47:59.035Z,30.57
2022-10-31T08:51:03.821Z,29.83
2022-10-31T08:54:07.730Z,30.07
2022-10-31T08:57:33.546Z,30.70
2022-10-31T09:00:37.326Z,30.40
2022-10-31T09:03:47.650Z,32.60
2022-10-31T09:07:19.774Z,30.67
2022-10-31T09:10:15.192Z,31.40
2022-10-31T09:13:22.411Z,33.27
2022-10-31T09:16:46.398Z,31.23
2022-10-31T09:19:56.109Z,31.07
2022-10-31T09:23:13.257Z,33.07
2022-10-31T09:26:16.246Z,33.40
2022-10-31T09:29:33.064Z,35.20
2022-10-31T09:32:37.764Z,36.95
2022-10-31T09:35:43.381Z,35.87
2022-10-31T09:38:47.806Z,36.60
2022-10-31T09:42:06.578Z,39.50
2022-10-31T09:45:18.328Z,36.95
2022-10-31T09:48:51.149Z,36.83
2022-10-31T09:52:02.706Z,37.55
2022-10-31T09:55:17.883Z,35.65
2022-10-31T09:58:25.490Z,38.03
2022-10-31T10:01:39.001Z,38.35
2022-10-31T10:04:46.791Z,37.67
2022-10-31T10:08:02.676Z,36.83
2022-10-31T10:11:49.102Z,36.50
2022-10-31T10:15:19.368Z,37.70
2022-10-31T10:18:33.365Z,37.42
2022-10-31T10:21:48.802Z,34.75
2022-10-31T10:25:17.465Z,35.65
2022-10-31T10:28:27.514Z,39.35
2022-10-31T10:31:37.284Z,33.42
2022-10-31T10:34:46.734Z,34.53
2022-10-31T10:37:54.594Z,35.38
2022-10-31T10:40:57.918Z,35.03
2022-10-31T10:44:02.314Z,35.65
2022-10-31T10:47:23.127Z,34.20
2022-10-31T10:50:37.659Z,34.90
2022-10-31T10:54:04.104Z,32.20
2022-10-31T10:57:24.591Z,32.38
2022-10-31T11:00:32.536Z,29.55
2022-10-31T11:03:37.575Z,30.27
2022-10-31T11:06:40.800Z,30.25
2022-10-31T11:09:43.887Z,27.77
2022-10-31T11:13:02.319Z,29.77
2022-10-31T11:16:11.259Z,29.45
2022-10-31T11:19:20.950Z,29.13
2022-10-31T11:22:26.372Z,30.40
2022-10-31T11:25:29.591Z,29.08
2022-10-31T11:28:35.905Z,31.83
2022-10-31T11:31:40.424Z,28.90
2022-10-31T11:34:46.903Z,32.50
2022-10-31T11:37:54.351Z,30.77
2022-10-31T11:41:11.315Z,28.27
2022-10-31T11:44:18.650Z,27.90
2022-10-31T11:47:28.680Z,27.98
2022-10-31T11:50:37.883Z,28.67
2022-10-31T11:53:56.792Z,27.17
2022-10-31T11:57:03.876Z,27.25
2022-10-31T12:00:25.108Z,28.85
2022-10-31T12:03:51.005Z,28.50
2022-10-31T12:06:55.653Z,29.67
2022-10-31T12:09:59.453Z,29.50
2022-10-31T12:13:13.424Z,26.80
2022-10-31T12:16:35.003Z,25.55
2022-10-31T12:19:53.890Z,26.05
2022-10-31T12:23:07.527Z,26.30
2022-10-31T12:26:23.024Z,30.48
2022-10-31T12:29:46.205Z,28.50
2022-10-31T12:33:13.357Z,29.27
2022-10-31T12:36:39.944Z,27.98
2022-10-31T12:39:52.076Z,27.40
2022-10-31T12:43:08.876Z,29.50
2022-10-31T12:46:24.393Z,29.33
2022-10-31T12:49:43.869Z,28.90
2022-10-31T12:53:04.665Z,29.50
2022-10-31T12:56:26.010Z,28.77
2022-10-31T12:59:35.732Z,29.13
2022-10-31T13:02:45.670Z,28.05
2022-10-31T13:05:54.468Z,30.60
2022-10-31T13:09:02.986Z,29.38
2022-10-31T13:12:13.274Z,26.40
2022-10-31T13:15:21.267Z,27.67
2022-10-31T13:18:32.951Z,28.58
2022-10-31T13:21:43.083Z,26.48
2022-10-31T13:24:56.940Z,28.63
2022-10-31T13:28:04.933Z,29.73
2022-10-31T13:31:07.894Z,27.40
2022-10-31T13:34:20.848Z,27.35
2022-10-31T13:37:33.315Z,27.80
2022-10-31T13:40:46.691Z,25.90
2022-10-31T13:44:03.996Z,25.08
2022-10-31T13:47:28.519Z,24.00
2022-10-31T13:50:33.296Z,25.88
2022-10-31T13:53:46.399Z,27.38
2022-10-31T13:56:53.465Z,24.20
2022-10-31T14:00:01.898Z,26.35
2022-10-31T14:03:36.272Z,28.80
2022-10-31T14:06:58.134Z,26.83
2022-10-31T14:10:06.183Z,25.30
2022-10-31T14:13:17.504Z,25.67
2022-10-31T14:16:25.700Z,25.70
2022-10-31T14:19:29.078Z,26.42
2022-10-31T14:22:36.340Z,26.17
2022-10-31T14:25:43.145Z,26.63
2022-10-31T14:28:49.298Z,25.35
2022-10-31T14:31:58.388Z,24.73
2022-10-31T14:35:01.942Z,25.27
2022-10-31T14:38:30.372Z,26.23
2022-10-31T14:41:54.297Z,30.30
2022-10-31T14:45:28.048Z,25.83
2022-10-31T14:49:13.494Z,25.05
2022-10-31T14:52:19.104Z,26.55
2022-10-31T14:55:23.986Z,27.90
2022-10-31T15:01:58.283Z,25.90
2022-10-31T15:05:03.009Z,26.95
2022-10-31T15:08:06.919Z,28.00
2022-10-31T15:11:15.339Z,33.13
2022-10-31T15:14:27.566Z,33.33
2022-10-31T15:17:32.009Z,33.85
2022-10-31T15:20:46.241Z,32.58
2022-10-31T15:23:49.846Z,34.35
2022-10-31T15:26:56.314Z,33.72
2022-10-31T15:30:00.261Z,33.40
2022-10-31T15:33:04.541Z,36.50
2022-10-31T15:36:08.354Z,34.08
2022-10-31T15:39:13.041Z,35.65
2022-10-31T15:42:23.039Z,35.90
2022-10-31T15:45:28.966Z,38.42
2022-10-31T15:48:35.392Z,34.72
2022-10-31T15:51:39.814Z,36.85
2022-10-31T15:54:50.847Z,37.25
2022-10-31T15:57:57.754Z,38.60
2022-10-31T16:01:03.382Z,38.15
2022-10-31T16:04:24.597Z,40.38
2022-10-31T16:07:28.911Z,36.72
2022-10-31T16:10:36.245Z,36.65
2022-10-31T16:13:44.159Z,36.13
2022-10-31T16:16:52.925Z,37.10
2022-10-31T16:20:01.064Z,36.10
2022-10-31T16:23:04.566Z,36.90
2022-10-31T16:26:08.982Z,38.03
2022-10-31T16:29:28.430Z,36.58
2022-10-31T16:32:37.185Z,34.63
2022-10-31T16:35:41.853Z,36.45
2022-10-31T16:38:44.826Z,36.63
2022-10-31T16:41:52.258Z,35.88
2022-10-31T16:44:55.216Z,36.03
2022-10-31T16:48:06.718Z,37.72
2022-10-31T16:51:11.069Z,36.47
2022-10-31T16:54:14.043Z,37.28
2022-10-31T16:57:22.311Z,37.08
2022-10-31T17:00:27.918Z,37.80
2022-10-31T17:03:31.171Z,39.50
2022-10-31T17:06:36.830Z,41.35
2022-10-31T17:09:39.822Z,38.80
2022-10-31T17:12:46.143Z,39.33
2022-10-31T17:15:52.966Z,37.42
2022-10-31T17:18:55.921Z,41.97
2022-10-31T17:22:00.193Z,44.95
2022-10-31T17:25:03.604Z,44.70
2022-10-31T17:28:06.912Z,42.03
2022-10-31T17:31:22.605Z,46.85
2022-10-31T17:34:25.551Z,42.00
2022-10-31T17:37:29.814Z,42.03
2022-10-31T17:40:33.354Z,47.10
2022-10-31T17:43:36.568Z,46.47
2022-10-31T17:46:40.063Z,44.20
2022-10-31T17:49:43.106Z,46.75
2022-10-31T17:52:47.470Z,49.88
2022-10-31T17:55:50.463Z,49.78
2022-10-31T17:58:53.444Z,52.00
2022-10-31T18:01:56.898Z,49.27
2022-10-31T18:05:02.343Z,49.93
2022-10-31T18:08:07.582Z,48.70
2022-10-31T18:11:14.568Z,49.70
2022-10-31T18:14:17.616Z,45.03
2022-10-31T18:17:21.023Z,51.65
2022-10-31T18:20:23.964Z,49.63
2022-10-31T18:23:28.216Z,48.42
2022-10-31T18:26:31.136Z,48.87
2022-10-31T18:29:34.121Z,50.40
2022-10-31T18:32:37.034Z,48.90
2022-10-31T18:35:40.799Z,50.30
2022-10-31T18:38:45.873Z,51.27
2022-10-31T18:41:48.868Z,51.90
2022-10-31T18:44:51.875Z,51.70
2022-10-31T18:47:55.412Z,48.83
2022-10-31T18:50:58.695Z,50.70
2022-10-31T18:54:03.285Z,47.67
2022-10-31T18:57:06.285Z,48.93
2022-10-31T19:00:10.749Z,51.27
2022-10-31T19:03:14.126Z,50.30
2022-10-31T19:06:17.095Z,45.77
2022-10-31T19:09:21.426Z,47.43
2022-10-31T19:12:24.573Z,48.20
2022-10-31T19:15:27.567Z,44.00
2022-10-31T19:18:30.621Z,41.80
2022-10-31T19:21:33.772Z,41.77
2022-10-31T19:24:38.058Z,41.60
2022-10-31T19:27:41.172Z,42.90
2022-10-31T19:30:44.467Z,43.57
2022-10-31T19:33:47.865Z,40.60
2022-10-31T19:36:50.821Z,39.67
2022-10-31T19:39:55.736Z,41.77
2022-10-31T19:43:00.102Z,42.37
2022-10-31T19:46:05.042Z,38.93
2022-10-31T19:49:08.143Z,39.67
2022-10-31T19:52:11.347Z,39.93
2022-10-31T19:55:16.061Z,44.57
2022-10-31T19:58:19.125Z,41.23
2022-10-31T20:01:24.659Z,43.07
2022-10-31T20:04:27.807Z,43.37
2022-10-31T20:07:30.931Z,40.17
2022-10-31T20:10:35.298Z,44.60
2022-10-31T20:13:38.353Z,42.87
2022-10-31T20:16:41.391Z,41.40
2022-10-31T20:19:44.425Z,40.97
2022-10-31T20:22:49.774Z,43.13
2022-10-31T20:25:54.251Z,43.37
2022-10-31T20:28:58.790Z,40.73
2022-10-31T20:32:02.052Z,39.87
2022-10-31T20:35:05.458Z,42.33
2022-10-31T20:38:09.130Z,38.87
2022-10-31T20:41:15.062Z,41.50
2022-10-31T20:44:19.205Z,38.17
2022-10-31T20:47:24.886Z,42.43
2022-10-31T20:50:28.924Z,39.47
2022-10-31T20:53:32.616Z,42.90
2022-10-31T20:56:36.989Z,43.67
2022-10-31T20:59:40.060Z,42.90
2022-10-31T21:02:44.439Z,44.90
2022-10-31T21:05:54.609Z,44.13
2022-10-31T21:08:58.431Z,39.63
2022-10-31T21:12:02.680Z,45.07
2022-10-31T21:15:06.285Z,44.30
2022-10-31T21:18:09.542Z,39.57
2022-10-31T21:21:15.141Z,43.27
2022-10-31T21:24:20.403Z,41.27
2022-10-31T21:27:24.853Z,40.57
2022-10-31T21:30:27.861Z,41.40
2022-10-31T21:33:30.934Z,39.00
2022-10-31T21:36:34.457Z,38.87
2022-10-31T21:39:38.511Z,38.50
2022-10-31T21:42:42.753Z,37.97
2022-10-31T21:45:45.821Z,36.20
2022-10-31T21:48:49.585Z,36.77
2022-10-31T21:51:52.507Z,36.57
2022-10-31T21:54:55.477Z,47.47
2022-10-31T21:58:00.033Z,40.20
2022-10-31T22:01:04.343Z,38.80
2022-10-31T22:04:07.995Z,40.20
2022-10-31T22:07:11.395Z,38.63
2022-10-31T22:10:14.506Z,38.77
2022-10-31T22:13:18.980Z,39.10
2022-10-31T22:16:24.807Z,38.53
2022-10-31T22:19:27.825Z,40.23
2022-10-31T22:22:30.905Z,43.10
2022-10-31T22:25:36.931Z,43.30
2022-10-31T22:28:42.401Z,47.70
2022-10-31T22:31:50.567Z,45.77
2022-10-31T22:34:58.919Z,44.93
2022-10-31T22:38:02.113Z,42.03
2022-10-31T22:41:05.067Z,42.57
2022-10-31T22:44:09.957Z,43.87
2022-10-31T22:47:12.992Z,47.53
2022-10-31T22:50:16.018Z,47.50
2022-10-31T22:53:19.227Z,53.70
2022-10-31T22:56:24.900Z,53.93
2022-10-31T22:59:29.405Z,50.17
2022-10-31T23:02:32.353Z,54.30
2022-10-31T23:05:35.278Z,53.33
2022-10-31T23:08:39.393Z,59.63
2022-10-31T23:11:42.778Z,53.83
2022-10-31T23:14:46.197Z,56.70
2022-10-31T23:17:49.283Z,56.67
2022-10-31T23:20:52.916Z,58.20
2022-10-31T23:23:57.814Z,61.17
2022-10-31T23:27:11.677Z,59.80
2022-10-31T23:30:16.332Z,59.87
2022-10-31T23:33:19.374Z,57.53
2022-10-31T23:36:22.481Z,60.43
2022-10-31T23:39:25.617Z,59.33
2022-10-31T23:42:29.705Z,61.80
2022-10-31T23:45:34.453Z,58.97
2022-10-31T23:48:37.437Z,61.87
2022-10-31T23:51:42.115Z,60.90
2022-10-31T23:54:45.392Z,59.80
2022-10-31T23:57:48.458Z,62.47
